RZO163 LPMA-LPPD
Flight info
| Callsign | RZO163 |
|---|---|
| Flight time | 1h 33m |
| Altitude | 38000 |
| Route | GALOZ DCT IRKID DCT 35N020W DCT ETROX DCT VSM |
| Aircraft | A320/M-SDE3FGHIRWY/LB1 |
Departure
| Time | 2026-05-05 12:58 |
|---|---|
| Airport | Cristiano Ronaldo International Airport (LPMA) |
Arrival
| Time | 2026-05-05 14:32 |
|---|---|
| Airport | João Paulo II Airport (LPPD) |
| Time | Latitude | Longitude | Altitude | Speed | Heading |
|---|---|---|---|---|---|
| 2026-05-05 12:27 | 32.69282 | -16.77758 | 169 ft | 0 kts | 138° |
| 2026-05-05 12:51 | 32.69283 | -16.77759 | 169 ft | 1 kts | 138° |
| 2026-05-05 12:51 | 32.69301 | -16.77779 | 169 ft | 4 kts | 138° |
| 2026-05-05 12:51 | 32.69317 | -16.77795 | 169 ft | 4 kts | 158° |
| 2026-05-05 12:51 | 32.69339 | -16.77794 | 169 ft | 4 kts | 220° |
| 2026-05-05 12:52 | 32.69357 | -16.77773 | 169 ft | 3 kts | 226° |
| 2026-05-05 12:52 | 32.69359 | -16.77770 | 169 ft | 0 kts | 226° |
| 2026-05-05 12:54 | 32.69340 | -16.77794 | 169 ft | 3 kts | 227° |
| 2026-05-05 12:54 | 32.69316 | -16.77824 | 169 ft | 7 kts | 226° |
| 2026-05-05 12:54 | 32.69293 | -16.77862 | 169 ft | 7 kts | 245° |
| 2026-05-05 12:55 | 32.69289 | -16.77922 | 169 ft | 6 kts | 270° |
| 2026-05-05 12:55 | 32.69291 | -16.77975 | 169 ft | 9 kts | 274° |
| 2026-05-05 12:55 | 32.69263 | -16.78064 | 168 ft | 15 kts | 221° |
| 2026-05-05 12:55 | 32.69165 | -16.78174 | 163 ft | 23 kts | 225° |
| 2026-05-05 12:56 | 32.69054 | -16.78304 | 157 ft | 22 kts | 224° |
| 2026-05-05 12:56 | 32.68957 | -16.78393 | 153 ft | 14 kts | 195° |
| 2026-05-05 12:56 | 32.68885 | -16.78438 | 153 ft | 11 kts | 249° |
| 2026-05-05 12:56 | 32.68915 | -16.78460 | 153 ft | 6 kts | 35° |
| 2026-05-05 12:57 | 32.68951 | -16.78427 | 153 ft | 7 kts | 45° |
| 2026-05-05 12:57 | 32.68958 | -16.78419 | 153 ft | 0 kts | 46° |
| 2026-05-05 12:57 | 32.69063 | -16.78294 | 157 ft | 55 kts | 44° |
| 2026-05-05 12:57 | 32.69491 | -16.77796 | 173 ft | 115 kts | 45° |
| 2026-05-05 12:58 | 32.70178 | -16.77003 | 318 ft | 150 kts | 43° |
| 2026-05-05 12:58 | 32.70899 | -16.76080 | 958 ft | 153 kts | 56° |
| 2026-05-05 12:58 | 32.71245 | -16.74870 | 1555 ft | 166 kts | 85° |
| 2026-05-05 12:58 | 32.70973 | -16.73444 | 1853 ft | 194 kts | 120° |
| 2026-05-05 12:59 | 32.69845 | -16.72387 | 2070 ft | 228 kts | 159° |
| 2026-05-05 12:59 | 32.68173 | -16.72350 | 2447 ft | 258 kts | 196° |
| 2026-05-05 12:59 | 32.66606 | -16.73485 | 3135 ft | 273 kts | 221° |
| 2026-05-05 13:00 | 32.65000 | -16.77499 | 4981 ft | 280 kts | 270° |
| 2026-05-05 13:00 | 32.65391 | -16.79714 | 5889 ft | 280 kts | 296° |
| 2026-05-05 13:01 | 32.68812 | -16.85359 | 8592 ft | 284 kts | 306° |
| 2026-05-05 13:01 | 32.69986 | -16.87260 | 9490 ft | 286 kts | 305° |
| 2026-05-05 13:01 | 32.71169 | -16.89184 | 9968 ft | 289 kts | 306° |
| 2026-05-05 13:01 | 32.72366 | -16.91137 | 10447 ft | 300 kts | 305° |
| 2026-05-05 13:02 | 32.73636 | -16.93217 | 10677 ft | 323 kts | 305° |
| 2026-05-05 13:02 | 32.74985 | -16.95424 | 11188 ft | 335 kts | 305° |
| 2026-05-05 13:02 | 32.76360 | -16.97673 | 11964 ft | 338 kts | 304° |
| 2026-05-05 13:02 | 32.77747 | -16.99940 | 12751 ft | 341 kts | 304° |
| 2026-05-05 13:03 | 32.79154 | -17.02239 | 13486 ft | 346 kts | 304° |
| 2026-05-05 13:03 | 32.80575 | -17.04562 | 14215 ft | 349 kts | 304° |
| 2026-05-05 13:03 | 32.81525 | -17.06115 | 14675 ft | 352 kts | 305° |
| 2026-05-05 13:03 | 32.83454 | -17.09279 | 15573 ft | 355 kts | 304° |
| 2026-05-05 13:04 | 32.84416 | -17.10860 | 15993 ft | 357 kts | 304° |
| 2026-05-05 13:04 | 32.85881 | -17.13262 | 16644 ft | 360 kts | 304° |
| 2026-05-05 13:04 | 32.87357 | -17.15676 | 17297 ft | 362 kts | 304° |
| 2026-05-05 13:04 | 32.88845 | -17.18113 | 17953 ft | 365 kts | 304° |
| 2026-05-05 13:05 | 32.90337 | -17.20566 | 18575 ft | 368 kts | 304° |
| 2026-05-05 13:05 | 32.91841 | -17.23042 | 19137 ft | 370 kts | 304° |
| 2026-05-05 13:05 | 32.93354 | -17.25537 | 19696 ft | 373 kts | 304° |
| 2026-05-05 13:05 | 32.94876 | -17.28046 | 20031 ft | 375 kts | 304° |
| 2026-05-05 13:06 | 32.96404 | -17.30562 | 20118 ft | 375 kts | 304° |
| 2026-05-05 13:06 | 32.97931 | -17.33076 | 20130 ft | 374 kts | 304° |
| 2026-05-05 13:06 | 32.99460 | -17.35597 | 20424 ft | 376 kts | 303° |
| 2026-05-05 13:06 | 33.00986 | -17.38119 | 21097 ft | 376 kts | 303° |
| 2026-05-05 13:07 | 33.02568 | -17.40608 | 21670 ft | 380 kts | 309° |
| 2026-05-05 13:07 | 33.04511 | -17.42772 | 22227 ft | 386 kts | 320° |
| 2026-05-05 13:07 | 33.06778 | -17.44524 | 22750 ft | 391 kts | 326° |
| 2026-05-05 13:07 | 33.09089 | -17.46179 | 23281 ft | 394 kts | 326° |
| 2026-05-05 13:08 | 33.11445 | -17.47871 | 23789 ft | 396 kts | 325° |
| 2026-05-05 13:08 | 33.13813 | -17.49574 | 24215 ft | 399 kts | 326° |
| 2026-05-05 13:08 | 33.16194 | -17.51286 | 24617 ft | 401 kts | 326° |
| 2026-05-05 13:08 | 33.18595 | -17.53016 | 24996 ft | 405 kts | 325° |
| 2026-05-05 13:09 | 33.21008 | -17.54761 | 25396 ft | 407 kts | 325° |
| 2026-05-05 13:09 | 33.23431 | -17.56516 | 25784 ft | 409 kts | 325° |
| 2026-05-05 13:09 | 33.25874 | -17.58283 | 26141 ft | 412 kts | 326° |
| 2026-05-05 13:09 | 33.28336 | -17.60063 | 26507 ft | 414 kts | 326° |
| 2026-05-05 13:10 | 33.30810 | -17.61855 | 26859 ft | 417 kts | 326° |
| 2026-05-05 13:10 | 33.33296 | -17.63657 | 27219 ft | 419 kts | 325° |
| 2026-05-05 13:10 | 33.35796 | -17.65468 | 27590 ft | 419 kts | 326° |
| 2026-05-05 13:10 | 33.38301 | -17.67283 | 27947 ft | 423 kts | 326° |
| 2026-05-05 13:11 | 33.40821 | -17.69120 | 28329 ft | 425 kts | 325° |
| 2026-05-05 13:11 | 33.43345 | -17.70974 | 28737 ft | 426 kts | 325° |
| 2026-05-05 13:11 | 33.45870 | -17.72842 | 29199 ft | 426 kts | 325° |
| 2026-05-05 13:11 | 33.48386 | -17.74717 | 29660 ft | 426 kts | 324° |
| 2026-05-05 13:12 | 33.50895 | -17.76605 | 30139 ft | 425 kts | 324° |
| 2026-05-05 13:12 | 33.53386 | -17.78499 | 30571 ft | 423 kts | 324° |
| 2026-05-05 13:12 | 33.55824 | -17.80376 | 31009 ft | 421 kts | 324° |
| 2026-05-05 13:12 | 33.58270 | -17.82283 | 31468 ft | 418 kts | 323° |
| 2026-05-05 13:13 | 33.60687 | -17.84196 | 31954 ft | 415 kts | 323° |
| 2026-05-05 13:13 | 33.63073 | -17.86115 | 32440 ft | 411 kts | 322° |
| 2026-05-05 13:13 | 33.64907 | -17.87613 | 32844 ft | 408 kts | 322° |
| 2026-05-05 13:13 | 33.67233 | -17.89545 | 33394 ft | 404 kts | 321° |
| 2026-05-05 13:14 | 33.69516 | -17.91483 | 33942 ft | 399 kts | 321° |
| 2026-05-05 13:14 | 33.71749 | -17.93423 | 34469 ft | 393 kts | 320° |
| 2026-05-05 13:14 | 33.73929 | -17.95366 | 34960 ft | 387 kts | 320° |
| 2026-05-05 13:14 | 33.76051 | -17.97305 | 35464 ft | 380 kts | 319° |
| 2026-05-05 13:15 | 33.78115 | -17.99245 | 35968 ft | 373 kts | 318° |
| 2026-05-05 13:15 | 33.80117 | -18.01179 | 36477 ft | 365 kts | 317° |
| 2026-05-05 13:15 | 33.82025 | -18.03077 | 36992 ft | 357 kts | 316° |
| 2026-05-05 13:15 | 33.83892 | -18.04992 | 37502 ft | 348 kts | 315° |
| 2026-05-05 13:16 | 33.85682 | -18.06888 | 38004 ft | 338 kts | 314° |
| 2026-05-05 13:16 | 33.87408 | -18.08751 | 38346 ft | 334 kts | 318° |
| 2026-05-05 13:16 | 33.89444 | -18.10243 | 38019 ft | 352 kts | 331° |
| 2026-05-05 13:16 | 33.91717 | -18.11506 | 37625 ft | 367 kts | 329° |
| 2026-05-05 13:17 | 33.96275 | -18.14363 | 37756 ft | 367 kts | 317° |
| 2026-05-05 13:17 | 33.98064 | -18.16500 | 37903 ft | 360 kts | 305° |
| 2026-05-05 13:17 | 33.99602 | -18.18897 | 38032 ft | 362 kts | 302° |
| 2026-05-05 13:18 | 34.01008 | -18.21412 | 38169 ft | 362 kts | 299° |
| 2026-05-05 13:18 | 34.02238 | -18.23760 | 38167 ft | 367 kts | 299° |
| 2026-05-05 13:18 | 34.04995 | -18.29022 | 38227 ft | 373 kts | 297° |
| 2026-05-05 13:19 | 34.06289 | -18.31791 | 37841 ft | 388 kts | 298° |
| 2026-05-05 13:19 | 34.07781 | -18.34548 | 37733 ft | 396 kts | 302° |
| 2026-05-05 13:19 | 34.10928 | -18.39569 | 37958 ft | 402 kts | 306° |
| 2026-05-05 13:20 | 34.12718 | -18.42170 | 38111 ft | 403 kts | 307° |
| 2026-05-05 13:20 | 34.14526 | -18.44694 | 38284 ft | 404 kts | 308° |
| 2026-05-05 13:20 | 34.17841 | -18.50221 | 38136 ft | 412 kts | 295° |
| 2026-05-05 13:21 | 34.20622 | -18.56352 | 38140 ft | 420 kts | 297° |
| 2026-05-05 13:21 | 34.22120 | -18.59388 | 38279 ft | 421 kts | 299° |
| 2026-05-05 13:21 | 34.23703 | -18.62371 | 38439 ft | 422 kts | 301° |
| 2026-05-05 13:22 | 34.27075 | -18.68195 | 38518 ft | 424 kts | 302° |
| 2026-05-05 13:22 | 34.30491 | -18.73996 | 38517 ft | 423 kts | 302° |
| 2026-05-05 13:23 | 34.33824 | -18.79864 | 38514 ft | 423 kts | 301° |
| 2026-05-05 13:23 | 34.37110 | -18.85775 | 38522 ft | 423 kts | 301° |
| 2026-05-05 13:24 | 34.40396 | -18.91691 | 38519 ft | 423 kts | 301° |
| 2026-05-05 13:24 | 34.43694 | -18.97599 | 38517 ft | 423 kts | 301° |
| 2026-05-05 13:25 | 34.46992 | -19.03506 | 38528 ft | 423 kts | 301° |
| 2026-05-05 13:25 | 34.50269 | -19.09386 | 38525 ft | 423 kts | 301° |
| 2026-05-05 13:26 | 34.53551 | -19.15309 | 38533 ft | 423 kts | 301° |
| 2026-05-05 13:26 | 34.56839 | -19.21244 | 38534 ft | 424 kts | 301° |
| 2026-05-05 13:27 | 34.60132 | -19.27180 | 38532 ft | 424 kts | 301° |
| 2026-05-05 13:27 | 34.63426 | -19.33121 | 38533 ft | 424 kts | 301° |
| 2026-05-05 13:28 | 34.66706 | -19.39062 | 38541 ft | 424 kts | 301° |
| 2026-05-05 13:28 | 34.68346 | -19.42033 | 38303 ft | 422 kts | 301° |
| 2026-05-05 13:28 | 34.69975 | -19.44990 | 38218 ft | 421 kts | 301° |
| 2026-05-05 13:29 | 34.73235 | -19.50940 | 38231 ft | 423 kts | 301° |
| 2026-05-05 13:29 | 34.76498 | -19.56903 | 38238 ft | 424 kts | 301° |
| 2026-05-05 13:30 | 34.79771 | -19.62862 | 38236 ft | 424 kts | 301° |
| 2026-05-05 13:30 | 34.83041 | -19.68826 | 38241 ft | 424 kts | 301° |
| 2026-05-05 13:31 | 34.86303 | -19.74803 | 38268 ft | 424 kts | 301° |
| 2026-05-05 13:31 | 34.89570 | -19.80787 | 38258 ft | 424 kts | 301° |
| 2026-05-05 13:32 | 34.92833 | -19.86774 | 38256 ft | 424 kts | 301° |
| 2026-05-05 13:32 | 34.96094 | -19.92780 | 38254 ft | 425 kts | 301° |
| 2026-05-05 13:33 | 34.99346 | -19.98788 | 38258 ft | 424 kts | 300° |
| 2026-05-05 13:33 | 35.01936 | -20.05212 | 38254 ft | 422 kts | 292° |
| 2026-05-05 13:34 | 35.04349 | -20.11733 | 38272 ft | 422 kts | 292° |
| 2026-05-05 13:34 | 35.06752 | -20.18219 | 38259 ft | 422 kts | 293° |
| 2026-05-05 13:35 | 35.09166 | -20.24762 | 38258 ft | 423 kts | 292° |
| 2026-05-05 13:35 | 35.11580 | -20.31317 | 38266 ft | 423 kts | 292° |
| 2026-05-05 13:36 | 35.13990 | -20.37878 | 38265 ft | 423 kts | 292° |
| 2026-05-05 13:36 | 35.16404 | -20.44458 | 38269 ft | 424 kts | 292° |
| 2026-05-05 13:37 | 35.18816 | -20.51034 | 38267 ft | 424 kts | 293° |
| 2026-05-05 13:37 | 35.21221 | -20.57619 | 38285 ft | 424 kts | 293° |
| 2026-05-05 13:38 | 35.23625 | -20.64220 | 38280 ft | 425 kts | 293° |
| 2026-05-05 13:38 | 35.26028 | -20.70833 | 38280 ft | 425 kts | 293° |
| 2026-05-05 13:39 | 35.28411 | -20.77399 | 38278 ft | 425 kts | 293° |
| 2026-05-05 13:39 | 35.30813 | -20.84014 | 38267 ft | 425 kts | 294° |
| 2026-05-05 13:40 | 35.33206 | -20.90638 | 38274 ft | 425 kts | 294° |
| 2026-05-05 13:40 | 35.35599 | -20.97264 | 38279 ft | 426 kts | 293° |
| 2026-05-05 13:41 | 35.37581 | -21.02783 | 38292 ft | 426 kts | 294° |
| 2026-05-05 13:41 | 35.40219 | -21.10146 | 38286 ft | 426 kts | 294° |
| 2026-05-05 13:42 | 35.42604 | -21.16784 | 38275 ft | 425 kts | 294° |
| 2026-05-05 13:42 | 35.44973 | -21.23430 | 38277 ft | 426 kts | 294° |
| 2026-05-05 13:43 | 35.47349 | -21.30080 | 38282 ft | 426 kts | 294° |
| 2026-05-05 13:43 | 35.49720 | -21.36737 | 38288 ft | 426 kts | 294° |
| 2026-05-05 13:44 | 35.52093 | -21.43410 | 38304 ft | 426 kts | 295° |
| 2026-05-05 13:44 | 35.54462 | -21.50094 | 38289 ft | 427 kts | 295° |
| 2026-05-05 13:45 | 35.56822 | -21.56789 | 38295 ft | 427 kts | 295° |
| 2026-05-05 13:45 | 35.59188 | -21.63481 | 38294 ft | 427 kts | 295° |
| 2026-05-05 13:46 | 35.61555 | -21.70177 | 38299 ft | 427 kts | 295° |
| 2026-05-05 13:46 | 35.63915 | -21.76890 | 38301 ft | 427 kts | 295° |
| 2026-05-05 13:47 | 35.66249 | -21.83553 | 38285 ft | 427 kts | 295° |
| 2026-05-05 13:47 | 35.68597 | -21.90265 | 38291 ft | 427 kts | 296° |
| 2026-05-05 13:48 | 35.70948 | -21.96989 | 38293 ft | 427 kts | 296° |
| 2026-05-05 13:48 | 35.73291 | -22.03712 | 38296 ft | 427 kts | 296° |
| 2026-05-05 13:49 | 35.75627 | -22.10433 | 38299 ft | 427 kts | 296° |
| 2026-05-05 13:49 | 35.77962 | -22.17161 | 38297 ft | 427 kts | 296° |
| 2026-05-05 13:50 | 35.80295 | -22.23889 | 38298 ft | 427 kts | 295° |
| 2026-05-05 13:50 | 35.82623 | -22.30629 | 38305 ft | 427 kts | 296° |
| 2026-05-05 13:51 | 35.84949 | -22.37372 | 38311 ft | 427 kts | 296° |
| 2026-05-05 13:51 | 35.87269 | -22.44119 | 38313 ft | 428 kts | 296° |
| 2026-05-05 13:52 | 35.89566 | -22.50824 | 38297 ft | 427 kts | 296° |
| 2026-05-05 13:52 | 35.91884 | -22.57578 | 38305 ft | 427 kts | 296° |
| 2026-05-05 13:53 | 35.94190 | -22.64341 | 38314 ft | 428 kts | 296° |
| 2026-05-05 13:53 | 35.96125 | -22.70013 | 38317 ft | 428 kts | 296° |
| 2026-05-05 13:54 | 35.98420 | -22.76742 | 38329 ft | 428 kts | 296° |
| 2026-05-05 13:54 | 36.00718 | -22.83523 | 38307 ft | 428 kts | 297° |
| 2026-05-05 13:55 | 36.03011 | -22.90311 | 38329 ft | 428 kts | 297° |
| 2026-05-05 13:55 | 36.05306 | -22.97098 | 38324 ft | 428 kts | 297° |
| 2026-05-05 13:56 | 36.07604 | -23.03892 | 38330 ft | 428 kts | 297° |
| 2026-05-05 13:56 | 36.09891 | -23.10689 | 38310 ft | 428 kts | 297° |
| 2026-05-05 13:57 | 36.12174 | -23.17493 | 38318 ft | 428 kts | 298° |
| 2026-05-05 13:57 | 36.14451 | -23.24301 | 38333 ft | 428 kts | 298° |
| 2026-05-05 13:58 | 36.16730 | -23.31110 | 38331 ft | 428 kts | 298° |
| 2026-05-05 13:58 | 36.19007 | -23.37924 | 38336 ft | 428 kts | 298° |
| 2026-05-05 13:59 | 36.22403 | -23.48156 | 38320 ft | 428 kts | 298° |
| 2026-05-05 14:00 | 36.25781 | -23.58365 | 38336 ft | 428 kts | 299° |
| 2026-05-05 14:00 | 36.28040 | -23.65195 | 38341 ft | 428 kts | 299° |
| 2026-05-05 14:01 | 36.30296 | -23.72020 | 38343 ft | 428 kts | 299° |
| 2026-05-05 14:01 | 36.32539 | -23.78865 | 38326 ft | 428 kts | 299° |
| 2026-05-05 14:02 | 36.34778 | -23.85708 | 38339 ft | 428 kts | 300° |
| 2026-05-05 14:02 | 36.37025 | -23.92543 | 38340 ft | 428 kts | 299° |
| 2026-05-05 14:03 | 36.39260 | -23.99380 | 38336 ft | 428 kts | 300° |
| 2026-05-05 14:03 | 36.41947 | -24.05851 | 38351 ft | 418 kts | 309° |
| 2026-05-05 14:04 | 36.45007 | -24.11980 | 38340 ft | 417 kts | 309° |
| 2026-05-05 14:04 | 36.48054 | -24.18103 | 38344 ft | 416 kts | 309° |
| 2026-05-05 14:05 | 36.51089 | -24.24223 | 38349 ft | 415 kts | 309° |
| 2026-05-05 14:05 | 36.54116 | -24.30331 | 38358 ft | 415 kts | 309° |
| 2026-05-05 14:06 | 36.57135 | -24.36438 | 38089 ft | 413 kts | 309° |
| 2026-05-05 14:06 | 36.58634 | -24.39474 | 37783 ft | 412 kts | 309° |
| 2026-05-05 14:06 | 36.60132 | -24.42506 | 37509 ft | 411 kts | 309° |
| 2026-05-05 14:07 | 36.61628 | -24.45536 | 37245 ft | 411 kts | 309° |
| 2026-05-05 14:07 | 36.63123 | -24.48566 | 36984 ft | 411 kts | 310° |
| 2026-05-05 14:07 | 36.64618 | -24.51602 | 36726 ft | 412 kts | 310° |
| 2026-05-05 14:07 | 36.66096 | -24.54605 | 36474 ft | 413 kts | 310° |
| 2026-05-05 14:08 | 36.67597 | -24.57658 | 36225 ft | 413 kts | 310° |
| 2026-05-05 14:08 | 36.69096 | -24.60713 | 35975 ft | 414 kts | 310° |
| 2026-05-05 14:08 | 36.70600 | -24.63781 | 35641 ft | 415 kts | 310° |
| 2026-05-05 14:08 | 36.72106 | -24.66854 | 34842 ft | 417 kts | 310° |
| 2026-05-05 14:09 | 36.73622 | -24.69947 | 34032 ft | 419 kts | 310° |
| 2026-05-05 14:09 | 36.75123 | -24.73026 | 33515 ft | 412 kts | 309° |
| 2026-05-05 14:09 | 36.76598 | -24.76060 | 32969 ft | 407 kts | 310° |
| 2026-05-05 14:09 | 36.78058 | -24.79064 | 32425 ft | 403 kts | 310° |
| 2026-05-05 14:10 | 36.79504 | -24.82035 | 31895 ft | 399 kts | 310° |
| 2026-05-05 14:10 | 36.80939 | -24.84980 | 31372 ft | 395 kts | 310° |
| 2026-05-05 14:10 | 36.82361 | -24.87902 | 30853 ft | 392 kts | 310° |
| 2026-05-05 14:10 | 36.83775 | -24.90807 | 30321 ft | 390 kts | 310° |
| 2026-05-05 14:11 | 36.85177 | -24.93688 | 29768 ft | 386 kts | 309° |
| 2026-05-05 14:11 | 36.86561 | -24.96538 | 29274 ft | 382 kts | 309° |
| 2026-05-05 14:11 | 36.87927 | -24.99361 | 28782 ft | 378 kts | 308° |
| 2026-05-05 14:11 | 36.89280 | -25.02157 | 28289 ft | 374 kts | 308° |
| 2026-05-05 14:12 | 36.90621 | -25.04926 | 27808 ft | 370 kts | 308° |
| 2026-05-05 14:12 | 36.91949 | -25.07670 | 27346 ft | 367 kts | 307° |
| 2026-05-05 14:12 | 36.93265 | -25.10390 | 26892 ft | 365 kts | 307° |
| 2026-05-05 14:12 | 36.94741 | -25.12909 | 26423 ft | 355 kts | 319° |
| 2026-05-05 14:13 | 36.96592 | -25.14876 | 25958 ft | 346 kts | 330° |
| 2026-05-05 14:13 | 36.98706 | -25.16235 | 25507 ft | 339 kts | 342° |
| 2026-05-05 14:13 | 37.00971 | -25.16972 | 25068 ft | 335 kts | 353° |
| 2026-05-05 14:13 | 37.03252 | -25.17193 | 24635 ft | 332 kts | 356° |
| 2026-05-05 14:14 | 37.05557 | -25.17372 | 24201 ft | 331 kts | 356° |
| 2026-05-05 14:14 | 37.07852 | -25.17554 | 23729 ft | 330 kts | 356° |
| 2026-05-05 14:14 | 37.10140 | -25.17741 | 23256 ft | 329 kts | 356° |
| 2026-05-05 14:14 | 37.12422 | -25.17928 | 22813 ft | 328 kts | 356° |
| 2026-05-05 14:15 | 37.14691 | -25.18117 | 22367 ft | 326 kts | 356° |
| 2026-05-05 14:15 | 37.16946 | -25.18304 | 21925 ft | 324 kts | 356° |
| 2026-05-05 14:15 | 37.19191 | -25.18485 | 21478 ft | 322 kts | 356° |
| 2026-05-05 14:15 | 37.21426 | -25.18663 | 21031 ft | 321 kts | 356° |
| 2026-05-05 14:16 | 37.23655 | -25.18841 | 20584 ft | 321 kts | 356° |
| 2026-05-05 14:16 | 37.25881 | -25.19018 | 20134 ft | 320 kts | 356° |
| 2026-05-05 14:16 | 37.28106 | -25.19196 | 19681 ft | 320 kts | 356° |
| 2026-05-05 14:16 | 37.30328 | -25.19376 | 19245 ft | 320 kts | 356° |
| 2026-05-05 14:17 | 37.32547 | -25.19553 | 18797 ft | 320 kts | 356° |
| 2026-05-05 14:17 | 37.34768 | -25.19730 | 18314 ft | 320 kts | 356° |
| 2026-05-05 14:17 | 37.36984 | -25.19907 | 17869 ft | 318 kts | 356° |
| 2026-05-05 14:17 | 37.39186 | -25.20084 | 17439 ft | 316 kts | 356° |
| 2026-05-05 14:18 | 37.41379 | -25.20264 | 17012 ft | 314 kts | 356° |
| 2026-05-05 14:18 | 37.43556 | -25.20445 | 16589 ft | 313 kts | 356° |
| 2026-05-05 14:18 | 37.45727 | -25.20623 | 16175 ft | 312 kts | 356° |
| 2026-05-05 14:18 | 37.47888 | -25.20796 | 15764 ft | 310 kts | 356° |
| 2026-05-05 14:19 | 37.50041 | -25.20967 | 15350 ft | 309 kts | 356° |
| 2026-05-05 14:19 | 37.52183 | -25.21140 | 14932 ft | 308 kts | 356° |
| 2026-05-05 14:19 | 37.54321 | -25.21317 | 14573 ft | 306 kts | 357° |
| 2026-05-05 14:19 | 37.56394 | -25.21653 | 14451 ft | 296 kts | 346° |
| 2026-05-05 14:20 | 37.58279 | -25.22617 | 14254 ft | 291 kts | 332° |
| 2026-05-05 14:20 | 37.59858 | -25.24163 | 14117 ft | 286 kts | 317° |
| 2026-05-05 14:20 | 37.61053 | -25.26179 | 13792 ft | 289 kts | 303° |
| 2026-05-05 14:20 | 37.61849 | -25.28478 | 13438 ft | 292 kts | 292° |
| 2026-05-05 14:21 | 37.62302 | -25.30991 | 13082 ft | 295 kts | 282° |
| 2026-05-05 14:21 | 37.62556 | -25.33559 | 12717 ft | 295 kts | 282° |
| 2026-05-05 14:21 | 37.62825 | -25.36119 | 12361 ft | 294 kts | 282° |
| 2026-05-05 14:21 | 37.63101 | -25.38665 | 12023 ft | 293 kts | 282° |
| 2026-05-05 14:22 | 37.63379 | -25.41203 | 11693 ft | 292 kts | 282° |
| 2026-05-05 14:22 | 37.63655 | -25.43724 | 11277 ft | 288 kts | 282° |
| 2026-05-05 14:22 | 37.63926 | -25.46225 | 10653 ft | 287 kts | 282° |
| 2026-05-05 14:22 | 37.64193 | -25.48708 | 10005 ft | 285 kts | 282° |
| 2026-05-05 14:23 | 37.64458 | -25.51181 | 9349 ft | 283 kts | 282° |
| 2026-05-05 14:23 | 37.64720 | -25.53625 | 8690 ft | 280 kts | 282° |
| 2026-05-05 14:23 | 37.64978 | -25.56051 | 8039 ft | 278 kts | 282° |
| 2026-05-05 14:23 | 37.65233 | -25.58466 | 7386 ft | 276 kts | 281° |
| 2026-05-05 14:24 | 37.65489 | -25.60856 | 6867 ft | 276 kts | 281° |
| 2026-05-05 14:24 | 37.65746 | -25.63241 | 6465 ft | 274 kts | 282° |
| 2026-05-05 14:24 | 37.66002 | -25.65623 | 6047 ft | 272 kts | 282° |
| 2026-05-05 14:24 | 37.66255 | -25.67985 | 5680 ft | 270 kts | 281° |
| 2026-05-05 14:25 | 37.66502 | -25.70314 | 5321 ft | 266 kts | 281° |
| 2026-05-05 14:25 | 37.66742 | -25.72604 | 5079 ft | 259 kts | 281° |
| 2026-05-05 14:25 | 37.66970 | -25.74801 | 4948 ft | 246 kts | 281° |
| 2026-05-05 14:25 | 37.67186 | -25.76897 | 4836 ft | 235 kts | 282° |
| 2026-05-05 14:26 | 37.67395 | -25.78897 | 4738 ft | 224 kts | 281° |
| 2026-05-05 14:26 | 37.67594 | -25.80805 | 4645 ft | 214 kts | 281° |
| 2026-05-05 14:26 | 37.67902 | -25.82581 | 4386 ft | 206 kts | 295° |
| 2026-05-05 14:26 | 37.68597 | -25.84149 | 3932 ft | 204 kts | 311° |
| 2026-05-05 14:27 | 37.69588 | -25.85384 | 3537 ft | 195 kts | 328° |
| 2026-05-05 14:27 | 37.70718 | -25.86197 | 3181 ft | 181 kts | 342° |
| 2026-05-05 14:27 | 37.71888 | -25.86600 | 2876 ft | 170 kts | 356° |
| 2026-05-05 14:27 | 37.73043 | -25.86649 | 2593 ft | 165 kts | 7° |
| 2026-05-05 14:28 | 37.74151 | -25.86363 | 2429 ft | 162 kts | 19° |
| 2026-05-05 14:28 | 37.75162 | -25.85784 | 2380 ft | 156 kts | 31° |
| 2026-05-05 14:28 | 37.76022 | -25.84970 | 2341 ft | 154 kts | 42° |
| 2026-05-05 14:28 | 37.76723 | -25.83949 | 2288 ft | 155 kts | 53° |
| 2026-05-05 14:29 | 37.77236 | -25.82770 | 2229 ft | 157 kts | 65° |
| 2026-05-05 14:29 | 37.77496 | -25.81419 | 2021 ft | 157 kts | 82° |
| 2026-05-05 14:29 | 37.77412 | -25.80098 | 1821 ft | 144 kts | 97° |
| 2026-05-05 14:29 | 37.77087 | -25.78935 | 1618 ft | 138 kts | 106° |
| 2026-05-05 14:30 | 37.76740 | -25.77828 | 1406 ft | 135 kts | 106° |
| 2026-05-05 14:30 | 37.76402 | -25.76729 | 1199 ft | 134 kts | 103° |
| 2026-05-05 14:30 | 37.76071 | -25.75613 | 1037 ft | 136 kts | 104° |
| 2026-05-05 14:30 | 37.75740 | -25.74492 | 908 ft | 135 kts | 106° |
| 2026-05-05 14:31 | 37.75374 | -25.73395 | 720 ft | 136 kts | 106° |
| 2026-05-05 14:31 | 37.75007 | -25.72297 | 549 ft | 135 kts | 104° |
| 2026-05-05 14:31 | 37.74660 | -25.71203 | 330 ft | 134 kts | 103° |
| 2026-05-05 14:31 | 37.74332 | -25.70164 | 243 ft | 106 kts | 112° |
| 2026-05-05 14:32 | 37.74157 | -25.69621 | 227 ft | 46 kts | 112° |
| 2026-05-05 14:32 | 37.74039 | -25.69248 | 212 ft | 45 kts | 112° |
| 2026-05-05 14:32 | 37.73932 | -25.68914 | 205 ft | 18 kts | 118° |
| 2026-05-05 14:32 | 37.73903 | -25.68860 | 192 ft | 2 kts | 107° |
| 2026-05-05 14:33 | 37.73915 | -25.68841 | 189 ft | 4 kts | 24° |
| 2026-05-05 14:33 | 37.73931 | -25.68850 | 199 ft | 0 kts | 312° |
| 2026-05-05 14:33 | 37.73940 | -25.68889 | 193 ft | 11 kts | 278° |
| 2026-05-05 14:33 | 37.73957 | -25.69000 | 207 ft | 12 kts | 290° |
| 2026-05-05 14:34 | 37.74016 | -25.69176 | 211 ft | 31 kts | 293° |
| 2026-05-05 14:34 | 37.74100 | -25.69446 | 223 ft | 35 kts | 291° |
| 2026-05-05 14:34 | 37.74190 | -25.69732 | 231 ft | 35 kts | 292° |
| 2026-05-05 14:34 | 37.74285 | -25.70026 | 238 ft | 35 kts | 293° |
| 2026-05-05 14:35 | 37.74385 | -25.70253 | 248 ft | 28 kts | 315° |
| 2026-05-05 14:35 | 37.74523 | -25.70388 | 262 ft | 23 kts | 324° |
| 2026-05-05 14:35 | 37.74617 | -25.70521 | 272 ft | 20 kts | 295° |
| 2026-05-05 14:35 | 37.74668 | -25.70691 | 274 ft | 22 kts | 291° |
| 2026-05-05 14:36 | 37.74728 | -25.70879 | 272 ft | 24 kts | 292° |
| 2026-05-05 14:36 | 37.74791 | -25.71073 | 272 ft | 16 kts | 291° |
| 2026-05-05 14:36 | 37.74824 | -25.71175 | 272 ft | 10 kts | 292° |
| 2026-05-05 14:36 | 37.74862 | -25.71187 | 272 ft | 6 kts | 27° |
| 2026-05-05 14:37 | 37.74893 | -25.71170 | 272 ft | 2 kts | 23° |
| 2026-05-05 14:37 | 37.74895 | -25.71168 | 272 ft | 0 kts | 23° |